Dorena, Oregon
Current Conditions -  °F | °C
As of 2:32 AM on Saturday 25 Oct 2014 (Local Time) from KEUG Reporting Station
Haze Haze  
Wind Chill: 51°   Ceiling: 200
Heat Index: 51°   Visibility: 1.5mi
Dew Point: 50°   Wind: 6mph
Humidity: 96%   Direction: 20°NNE
Pressure: 29.58"   Gusts: NA
Location:  43.72°N, 122.86°W
Report Text: KEUG 250932Z AUTO 02005KT 1 1/2SM R16R/6000VP6000FT BR OVC002 11/10 A2958 RMK AO2 PRESFR T01060100
Loading
Personal Weather Stations






























Interactive Weather Map
Tropical Storm Tracking
New forecast layout! Learn more

10-Day Weather Forecast

Advertisements
Track Severe Weather on mobile